createdAt,value
2023-03-14T00:02:02.924Z,2.62
2023-03-14T00:04:31.137Z,2.55
2023-03-14T00:07:00.161Z,2.48
2023-03-14T00:09:31.190Z,2.44
2023-03-14T00:12:00.326Z,2.45
2023-03-14T00:14:28.956Z,2.45
2023-03-14T00:17:01.572Z,2.39
2023-03-14T00:19:30.062Z,2.36
2023-03-14T00:21:58.072Z,2.32
2023-03-14T00:24:25.992Z,2.25
2023-03-14T00:26:54.725Z,2.19
2023-03-14T00:29:25.257Z,2.21
2023-03-14T00:31:54.457Z,2.15
2023-03-14T00:34:22.575Z,2.08
2023-03-14T00:36:51.068Z,2.19
2023-03-14T00:39:20.245Z,2.18
2023-03-14T00:41:48.789Z,2.10
2023-03-14T00:44:16.888Z,2.09
2023-03-14T00:46:44.810Z,2.11
2023-03-14T00:49:12.614Z,2.12
2023-03-14T00:51:40.942Z,2.19
2023-03-14T00:54:09.686Z,2.26
2023-03-14T00:56:38.595Z,2.27
2023-03-14T00:59:09.781Z,2.40
2023-03-14T01:01:40.433Z,2.35
2023-03-14T01:04:08.918Z,2.34
2023-03-14T01:06:37.849Z,2.31
2023-03-14T01:09:06.037Z,2.39
2023-03-14T01:11:38.269Z,2.46
2023-03-14T01:14:06.757Z,2.48
2023-03-14T01:16:36.345Z,2.47
2023-03-14T01:19:04.536Z,2.41
2023-03-14T01:21:34.980Z,2.34
2023-03-14T01:24:04.349Z,2.26
2023-03-14T01:26:36.863Z,2.29
2023-03-14T01:29:07.709Z,2.15
2023-03-14T01:31:37.814Z,2.07
2023-03-14T01:34:07.549Z,2.02
2023-03-14T01:36:36.249Z,2.03
2023-03-14T01:39:10.110Z,2.10
2023-03-14T01:41:38.819Z,2.06
2023-03-14T01:44:13.329Z,1.99
2023-03-14T01:46:44.562Z,1.88
2023-03-14T01:49:19.674Z,1.89
2023-03-14T01:51:58.641Z,1.81
2023-03-14T01:54:38.134Z,1.75
2023-03-14T01:57:22.332Z,1.80
2023-03-14T02:00:12.882Z,1.83
2023-03-14T02:02:51.745Z,1.84
2023-03-14T02:05:28.163Z,1.86
2023-03-14T02:08:02.014Z,1.85
2023-03-14T02:10:43.231Z,1.88
2023-03-14T02:13:12.666Z,1.95
2023-03-14T02:16:01.058Z,1.95
2023-03-14T02:18:50.348Z,1.95
2023-03-14T02:21:39.859Z,1.92
2023-03-14T02:24:36.444Z,1.98
2023-03-14T02:27:29.832Z,1.97
2023-03-14T02:30:00.923Z,1.91
2023-03-14T02:32:33.501Z,1.93
2023-03-14T02:35:12.884Z,1.97
2023-03-14T02:37:42.069Z,2.01
2023-03-14T02:40:12.697Z,2.00
2023-03-14T02:42:41.492Z,2.04
2023-03-14T02:45:13.214Z,2.00
2023-03-14T02:47:48.609Z,1.85
2023-03-14T02:50:18.537Z,1.98
2023-03-14T02:52:47.731Z,2.00
2023-03-14T02:55:15.890Z,2.01
2023-03-14T02:57:47.064Z,2.02
2023-03-14T03:00:16.214Z,2.04
2023-03-14T03:02:44.445Z,2.00
2023-03-14T03:05:13.498Z,2.01
2023-03-14T03:07:42.161Z,2.00
2023-03-14T03:10:13.102Z,2.03
2023-03-14T03:12:42.515Z,2.00
2023-03-14T03:15:10.904Z,1.98
2023-03-14T03:17:41.236Z,1.96
2023-03-14T03:20:10.779Z,1.96
2023-03-14T03:22:40.315Z,1.98
2023-03-14T03:25:09.888Z,1.92
2023-03-14T03:27:38.862Z,1.97
2023-03-14T03:30:10.547Z,1.98
2023-03-14T03:32:38.856Z,2.05
2023-03-14T03:35:08.865Z,2.06
2023-03-14T03:37:40.737Z,2.09
2023-03-14T03:40:09.509Z,2.10
2023-03-14T03:42:38.524Z,2.08
2023-03-14T03:45:10.048Z,2.05
2023-03-14T03:47:49.750Z,2.08
2023-03-14T03:50:18.381Z,2.15
2023-03-14T03:52:46.527Z,2.18
2023-03-14T03:55:14.846Z,2.12
2023-03-14T03:57:42.616Z,2.17
2023-03-14T04:00:14.126Z,2.20
2023-03-14T04:02:50.243Z,2.23
2023-03-14T04:05:20.721Z,2.18
2023-03-14T04:07:58.635Z,2.21
2023-03-14T04:10:29.686Z,2.19
2023-03-14T04:13:09.574Z,2.30
2023-03-14T04:15:40.650Z,2.22
2023-03-14T04:18:16.419Z,2.33
2023-03-14T04:20:51.647Z,2.38
2023-03-14T04:23:20.731Z,2.46
2023-03-14T04:25:53.464Z,2.51
2023-03-14T04:28:23.344Z,2.61
2023-03-14T04:30:55.369Z,2.68
2023-03-14T04:33:26.273Z,2.72
2023-03-14T04:35:58.336Z,2.70
2023-03-14T04:38:26.550Z,2.72
2023-03-14T04:40:56.803Z,2.81
2023-03-14T04:43:30.828Z,2.88
2023-03-14T04:46:08.497Z,2.95
2023-03-14T04:48:39.504Z,3.08
2023-03-14T04:51:11.971Z,3.12
2023-03-14T04:53:42.653Z,3.33
2023-03-14T04:56:18.780Z,3.43
2023-03-14T04:58:48.795Z,3.51
2023-03-14T05:01:19.118Z,3.66
2023-03-14T05:04:04.853Z,3.61
2023-03-14T05:06:52.287Z,3.83
2023-03-14T05:09:39.103Z,4.03
2023-03-14T05:12:35.188Z,3.86
2023-03-14T05:15:25.598Z,4.10
2023-03-14T05:18:24.384Z,4.10
2023-03-14T05:21:13.113Z,4.27
2023-03-14T05:24:08.751Z,4.51
2023-03-14T05:26:55.332Z,4.39
2023-03-14T05:29:49.725Z,4.72
2023-03-14T05:32:38.315Z,4.73
2023-03-14T05:35:33.268Z,4.96
2023-03-14T05:38:25.216Z,4.97
2023-03-14T05:41:12.763Z,5.23
2023-03-14T05:44:01.649Z,5.29
2023-03-14T05:47:02.016Z,5.51
2023-03-14T05:49:47.464Z,5.69
2023-03-14T05:52:39.067Z,5.73
2023-03-14T05:55:23.356Z,5.81
2023-03-14T05:58:07.130Z,5.92
2023-03-14T06:00:55.651Z,6.07
2023-03-14T06:03:47.617Z,6.29
2023-03-14T06:06:16.162Z,6.03
2023-03-14T06:08:44.390Z,6.37
2023-03-14T06:11:14.302Z,6.29
2023-03-14T06:13:44.584Z,6.38
2023-03-14T06:16:12.826Z,6.65
2023-03-14T06:18:48.207Z,6.60
2023-03-14T06:21:19.245Z,6.51
2023-03-14T06:23:48.581Z,6.66
2023-03-14T06:26:17.601Z,6.73
2023-03-14T06:28:48.342Z,6.80
2023-03-14T06:31:17.096Z,6.87
2023-03-14T06:33:54.906Z,7.07
2023-03-14T06:36:25.135Z,7.23
2023-03-14T06:38:53.092Z,7.16
2023-03-14T06:41:21.488Z,7.35
2023-03-14T06:43:55.436Z,7.26
2023-03-14T06:46:25.538Z,7.22
2023-03-14T06:48:55.031Z,7.33
2023-03-14T06:51:28.487Z,7.38
2023-03-14T06:53:59.427Z,7.46
2023-03-14T06:56:31.429Z,7.71
2023-03-14T06:59:01.595Z,7.98
2023-03-14T07:01:34.097Z,7.82
2023-03-14T07:04:11.327Z,7.87
2023-03-14T07:06:45.615Z,8.11
2023-03-14T07:09:13.575Z,8.14
2023-03-14T07:11:45.701Z,8.34
2023-03-14T07:14:14.037Z,8.20
2023-03-14T07:16:41.929Z,8.26
2023-03-14T07:19:09.846Z,8.13
2023-03-14T07:21:42.222Z,8.21
2023-03-14T07:24:14.312Z,8.36
2023-03-14T07:26:44.534Z,8.50
2023-03-14T07:29:12.876Z,8.43
2023-03-14T07:31:42.208Z,8.59
2023-03-14T07:34:10.133Z,8.51
2023-03-14T07:36:42.706Z,8.73
2023-03-14T07:39:11.620Z,9.07
2023-03-14T07:41:46.690Z,8.96
2023-03-14T07:44:42.196Z,9.22
2023-03-14T07:47:11.525Z,9.32
2023-03-14T07:49:41.085Z,9.27
2023-03-14T07:52:08.932Z,9.27
2023-03-14T07:54:38.869Z,9.46
2023-03-14T07:57:13.926Z,9.62
2023-03-14T07:59:42.024Z,9.79
2023-03-14T08:02:13.571Z,9.72
2023-03-14T08:04:41.820Z,9.82
2023-03-14T08:07:10.808Z,9.73
2023-03-14T08:09:39.684Z,9.64
2023-03-14T08:12:08.422Z,9.89
2023-03-14T08:14:37.266Z,9.92
2023-03-14T08:17:09.593Z,9.70
2023-03-14T08:19:37.814Z,9.83
2023-03-14T08:22:07.128Z,9.94
2023-03-14T08:24:36.757Z,9.89
2023-03-14T08:27:06.369Z,9.79
2023-03-14T08:29:36.312Z,9.85
2023-03-14T08:32:04.777Z,10.04
2023-03-14T08:34:34.611Z,10.24
2023-03-14T08:37:19.869Z,10.44
2023-03-14T08:39:54.872Z,10.22
2023-03-14T08:42:23.105Z,10.29
2023-03-14T08:44:52.597Z,10.30
2023-03-14T08:47:21.133Z,10.27
2023-03-14T08:49:49.704Z,10.63
2023-03-14T08:52:17.671Z,10.50
2023-03-14T08:54:45.897Z,10.58
2023-03-14T08:57:13.860Z,10.56
2023-03-14T08:59:42.258Z,10.54
2023-03-14T09:02:13.569Z,10.77
2023-03-14T09:04:41.875Z,10.90
2023-03-14T09:07:13.137Z,11.07
2023-03-14T09:09:43.263Z,11.12
2023-03-14T09:12:11.371Z,10.66
2023-03-14T09:14:44.234Z,10.74
2023-03-14T09:17:12.478Z,10.77
2023-03-14T09:19:41.565Z,10.88
2023-03-14T09:22:10.704Z,10.65
2023-03-14T09:24:40.452Z,10.93
2023-03-14T09:27:08.917Z,10.99
2023-03-14T09:29:39.292Z,11.08
2023-03-14T09:32:07.472Z,11.00
2023-03-14T09:34:38.506Z,10.98
2023-03-14T09:37:07.289Z,11.17
2023-03-14T09:39:35.745Z,11.26
2023-03-14T09:42:07.060Z,11.45
2023-03-14T09:44:37.888Z,11.40
2023-03-14T09:47:07.682Z,11.14
2023-03-14T09:49:40.795Z,11.59
2023-03-14T09:52:17.297Z,11.76
2023-03-14T09:55:05.777Z,11.65
2023-03-14T09:57:35.603Z,11.68
2023-03-14T10:00:24.282Z,11.82
2023-03-14T10:03:21.454Z,11.76
2023-03-14T10:05:50.982Z,12.01
2023-03-14T10:08:19.435Z,11.81
2023-03-14T10:10:47.331Z,11.73
2023-03-14T10:13:19.772Z,12.10
2023-03-14T10:15:57.237Z,12.15
2023-03-14T10:18:29.128Z,12.01
2023-03-14T10:21:08.153Z,12.37
2023-03-14T10:23:36.040Z,12.12
2023-03-14T10:26:15.141Z,12.45
2023-03-14T10:28:46.351Z,12.51
2023-03-14T10:31:14.698Z,12.70
2023-03-14T10:33:45.277Z,12.37
2023-03-14T10:36:18.114Z,12.57
2023-03-14T10:38:51.628Z,12.81
2023-03-14T10:41:32.179Z,12.87
2023-03-14T10:44:03.158Z,12.77
2023-03-14T10:46:35.672Z,12.71
2023-03-14T10:49:31.981Z,12.91
2023-03-14T10:52:03.731Z,12.95
2023-03-14T10:54:32.646Z,12.99
2023-03-14T10:57:01.760Z,13.05
2023-03-14T10:59:34.549Z,12.94
2023-03-14T11:02:14.692Z,12.98
2023-03-14T11:05:10.373Z,12.94
2023-03-14T11:07:43.745Z,13.14
2023-03-14T11:10:18.094Z,13.15
2023-03-14T11:12:52.104Z,13.49
2023-03-14T11:15:35.635Z,13.72
2023-03-14T11:18:23.616Z,13.31
2023-03-14T11:21:13.774Z,13.62
2023-03-14T11:23:59.998Z,13.36
2023-03-14T11:26:31.170Z,13.55
2023-03-14T11:29:00.551Z,13.38
2023-03-14T11:31:34.758Z,13.42
2023-03-14T11:34:23.554Z,13.54
2023-03-14T11:37:01.944Z,13.77
2023-03-14T11:39:36.895Z,13.94
2023-03-14T11:42:14.203Z,13.87
2023-03-14T11:44:44.858Z,13.84
2023-03-14T11:47:41.431Z,13.80
2023-03-14T11:50:24.416Z,13.74
2023-03-14T11:53:07.134Z,14.03
2023-03-14T11:55:55.143Z,13.99
2023-03-14T11:58:27.309Z,13.93
2023-03-14T12:00:57.549Z,13.88
2023-03-14T12:03:34.043Z,14.04
2023-03-14T12:06:05.165Z,14.19
2023-03-14T12:09:02.616Z,14.09
2023-03-14T12:11:34.916Z,14.50
2023-03-14T12:14:03.464Z,14.81
2023-03-14T12:16:36.578Z,15.08
2023-03-14T12:19:35.124Z,15.12
2023-03-14T12:22:30.824Z,15.45
2023-03-14T12:25:26.563Z,15.67
2023-03-14T12:27:57.381Z,15.76
2023-03-14T12:30:30.868Z,15.66
2023-03-14T12:33:19.267Z,16.17
2023-03-14T12:35:58.557Z,16.32
2023-03-14T12:38:50.905Z,16.64
2023-03-14T12:41:29.707Z,17.09
2023-03-14T12:43:57.752Z,17.16
2023-03-14T12:46:28.347Z,16.48
2023-03-14T12:49:04.604Z,17.08
2023-03-14T12:51:41.063Z,17.22
2023-03-14T12:54:15.098Z,17.31
2023-03-14T12:57:06.447Z,17.59
2023-03-14T12:59:35.363Z,16.83
2023-03-14T13:02:21.225Z,17.21
2023-03-14T13:05:12.556Z,17.45
2023-03-14T13:07:40.777Z,17.53
2023-03-14T13:10:19.687Z,17.32
2023-03-14T13:13:10.277Z,17.05
2023-03-14T13:15:45.969Z,17.37
2023-03-14T13:18:25.580Z,17.64
2023-03-14T13:21:21.039Z,17.63
2023-03-14T13:24:02.542Z,17.36
2023-03-14T13:26:35.385Z,17.68
2023-03-14T13:29:24.166Z,17.69
2023-03-14T13:32:00.057Z,17.35
2023-03-14T13:34:28.609Z,18.23
2023-03-14T13:37:00.108Z,18.22
2023-03-14T13:39:30.545Z,18.68
2023-03-14T13:42:00.170Z,18.47
2023-03-14T13:44:33.982Z,17.77
2023-03-14T13:47:02.544Z,18.01
2023-03-14T13:49:33.900Z,18.41
2023-03-14T13:52:03.198Z,18.40
2023-03-14T13:54:32.334Z,17.65
2023-03-14T13:57:06.176Z,17.84
2023-03-14T13:59:36.188Z,18.08
2023-03-14T14:02:18.689Z,18.44
2023-03-14T14:04:47.159Z,18.81
2023-03-14T14:07:19.637Z,18.52
2023-03-14T14:09:50.580Z,18.11
2023-03-14T14:12:29.387Z,18.25
2023-03-14T14:15:03.770Z,18.29
2023-03-14T14:17:44.995Z,18.27
2023-03-14T14:20:40.033Z,17.40
2023-03-14T14:23:26.374Z,17.84
2023-03-14T14:25:54.947Z,17.55
2023-03-14T14:28:31.414Z,18.39
2023-03-14T14:31:16.231Z,18.01
2023-03-14T14:33:50.685Z,17.55
2023-03-14T14:36:39.385Z,17.47
2023-03-14T14:39:33.573Z,17.29
2023-03-14T14:42:01.767Z,17.14
2023-03-14T14:44:33.009Z,17.34
2023-03-14T14:47:05.923Z,17.00
2023-03-14T14:49:34.885Z,17.67
2023-03-14T14:52:18.330Z,17.15
2023-03-14T14:54:59.812Z,16.87
2023-03-14T14:57:31.534Z,17.34
2023-03-14T15:00:07.650Z,17.04
2023-03-14T15:02:45.648Z,16.94
2023-03-14T15:05:18.546Z,16.37
2023-03-14T15:07:48.051Z,15.91
2023-03-14T15:10:42.701Z,15.46
2023-03-14T15:13:14.164Z,14.85
2023-03-14T15:15:43.378Z,14.46
2023-03-14T15:18:17.282Z,14.14
2023-03-14T15:20:45.735Z,14.08
2023-03-14T15:23:16.967Z,13.92
2023-03-14T15:25:55.569Z,13.52
2023-03-14T15:28:25.767Z,13.17
2023-03-14T15:30:55.776Z,13.01
2023-03-14T15:33:25.413Z,12.74
2023-03-14T15:35:53.712Z,12.49
2023-03-14T15:38:24.227Z,12.41
2023-03-14T15:40:56.478Z,12.18
2023-03-14T15:43:26.051Z,12.05
2023-03-14T15:45:58.505Z,11.93
2023-03-14T15:48:28.100Z,11.68
2023-03-14T15:50:56.525Z,11.54
2023-03-14T15:53:24.954Z,11.33
2023-03-14T15:55:53.194Z,11.13
2023-03-14T15:58:22.019Z,11.12
2023-03-14T16:00:50.553Z,11.08
2023-03-14T16:03:19.791Z,10.90
2023-03-14T16:05:48.187Z,10.78
2023-03-14T16:08:16.142Z,10.73
2023-03-14T16:10:46.427Z,10.65
2023-03-14T16:13:14.858Z,10.57
2023-03-14T16:15:43.178Z,10.52
2023-03-14T16:18:21.047Z,10.39
2023-03-14T16:20:58.031Z,10.38
2023-03-14T16:23:27.246Z,10.24
2023-03-14T16:25:55.213Z,10.17
2023-03-14T16:28:23.110Z,10.12
2023-03-14T16:30:50.852Z,10.08
2023-03-14T16:33:19.761Z,10.03
2023-03-14T16:35:57.974Z,9.94
2023-03-14T16:38:29.514Z,9.86
2023-03-14T16:41:04.026Z,9.80
2023-03-14T16:43:34.374Z,9.68
2023-03-14T16:46:02.798Z,9.67
2023-03-14T16:48:39.681Z,9.54
2023-03-14T16:51:08.668Z,9.51
2023-03-14T16:53:36.979Z,9.44
2023-03-14T16:56:07.344Z,9.33
2023-03-14T16:58:35.928Z,9.26
2023-03-14T17:01:11.687Z,9.13
2023-03-14T17:03:44.052Z,9.17
2023-03-14T17:06:16.000Z,9.12
2023-03-14T17:08:44.494Z,9.14
2023-03-14T17:11:12.213Z,9.11
2023-03-14T17:13:40.180Z,9.01
2023-03-14T17:16:09.971Z,9.00
2023-03-14T17:18:37.748Z,8.93
2023-03-14T17:21:10.407Z,8.94
2023-03-14T17:23:41.278Z,8.82
2023-03-14T17:26:09.179Z,8.83
2023-03-14T17:28:37.923Z,8.80
2023-03-14T17:31:16.844Z,8.80
2023-03-14T17:33:53.621Z,8.71
2023-03-14T17:36:25.423Z,8.71
2023-03-14T17:38:56.392Z,8.70
2023-03-14T17:41:26.172Z,8.68
2023-03-14T17:43:55.423Z,8.61
2023-03-14T17:46:26.980Z,8.59
2023-03-14T17:48:55.842Z,8.69
2023-03-14T17:51:28.414Z,8.55
2023-03-14T17:53:56.973Z,8.57
2023-03-14T17:56:26.027Z,8.62
2023-03-14T17:58:59.705Z,8.68
2023-03-14T18:01:28.949Z,8.56
2023-03-14T18:04:02.376Z,8.62
2023-03-14T18:06:31.858Z,8.60
2023-03-14T18:09:01.818Z,8.54
2023-03-14T18:11:32.989Z,8.52
2023-03-14T18:14:07.953Z,8.65
2023-03-14T18:16:42.146Z,8.72
2023-03-14T18:19:10.386Z,8.70
2023-03-14T18:21:40.782Z,8.78
2023-03-14T18:24:11.458Z,8.76
2023-03-14T18:26:40.741Z,8.95
2023-03-14T18:29:08.594Z,8.98
2023-03-14T18:31:38.158Z,9.06
2023-03-14T18:34:06.756Z,8.94
2023-03-14T18:36:36.938Z,9.01
2023-03-14T18:39:07.578Z,9.00
2023-03-14T18:41:35.690Z,8.99
2023-03-14T18:44:04.030Z,9.05
2023-03-14T18:46:32.461Z,9.02
2023-03-14T18:49:04.971Z,9.17
2023-03-14T18:51:35.040Z,9.13
2023-03-14T18:54:08.724Z,9.16
2023-03-14T18:56:39.060Z,9.16
2023-03-14T18:59:07.519Z,9.08
2023-03-14T19:01:37.413Z,9.14
2023-03-14T19:04:05.470Z,9.16
2023-03-14T19:06:36.447Z,9.08
2023-03-14T19:09:06.456Z,9.06
2023-03-14T19:11:35.064Z,9.14
2023-03-14T19:14:05.860Z,8.94
2023-03-14T19:16:34.930Z,8.99
2023-03-14T19:19:03.939Z,8.83
2023-03-14T19:21:34.913Z,8.77
2023-03-14T19:24:05.441Z,8.69
2023-03-14T19:26:35.650Z,8.80
2023-03-14T19:29:04.987Z,8.75
2023-03-14T19:31:35.112Z,8.70
2023-03-14T19:34:04.401Z,8.61
2023-03-14T19:36:34.823Z,8.57
2023-03-14T19:39:03.158Z,8.57
2023-03-14T19:41:32.034Z,8.50
2023-03-14T19:44:01.419Z,8.41
2023-03-14T19:46:33.597Z,8.32
2023-03-14T19:49:02.851Z,8.30
2023-03-14T19:51:36.117Z,8.39
2023-03-14T19:54:06.155Z,8.39
2023-03-14T19:56:35.248Z,8.53
2023-03-14T19:59:05.230Z,8.54
2023-03-14T20:01:35.636Z,8.56
2023-03-14T20:04:06.865Z,8.53
2023-03-14T20:06:35.224Z,8.54
2023-03-14T20:09:06.107Z,8.62
2023-03-14T20:11:44.030Z,8.61
2023-03-14T20:14:14.927Z,8.59
2023-03-14T20:16:44.274Z,8.78
2023-03-14T20:19:15.644Z,8.69
2023-03-14T20:21:43.753Z,8.82
2023-03-14T20:24:11.958Z,8.80
2023-03-14T20:26:43.126Z,8.90
2023-03-14T20:29:11.588Z,9.05
2023-03-14T20:31:40.542Z,9.03
2023-03-14T20:34:08.442Z,8.99
2023-03-14T20:36:38.397Z,9.13
2023-03-14T20:39:06.234Z,9.14
2023-03-14T20:41:44.261Z,9.12
2023-03-14T20:44:14.581Z,9.22
2023-03-14T20:46:42.955Z,9.21
2023-03-14T20:49:10.981Z,9.32
2023-03-14T20:51:39.881Z,9.22
2023-03-14T20:54:14.270Z,9.42
2023-03-14T20:56:46.444Z,9.34
2023-03-14T20:59:14.990Z,9.44
2023-03-14T21:04:34.173Z,9.52
2023-03-14T21:07:03.381Z,9.61
2023-03-14T21:09:32.132Z,9.90
2023-03-14T21:12:00.633Z,9.89
2023-03-14T21:14:28.991Z,9.72
2023-03-14T21:16:58.882Z,9.82
2023-03-14T21:19:34.232Z,9.90
2023-03-14T21:22:04.171Z,9.73
2023-03-14T21:24:32.276Z,9.53
2023-03-14T21:27:00.849Z,9.72
2023-03-14T21:29:29.752Z,9.85
2023-03-14T21:32:01.575Z,9.93
2023-03-14T21:34:30.967Z,9.97
2023-03-14T21:36:59.301Z,10.08
2023-03-14T21:39:27.506Z,9.91
2023-03-14T21:41:56.499Z,9.97
2023-03-14T21:44:24.264Z,9.83
2023-03-14T21:46:52.109Z,9.91
2023-03-14T21:49:20.696Z,9.85
2023-03-14T21:51:49.146Z,9.66
2023-03-14T21:54:17.005Z,9.70
2023-03-14T21:56:45.269Z,9.72
2023-03-14T21:59:15.028Z,9.92
2023-03-14T22:01:44.742Z,9.84
2023-03-14T22:04:13.400Z,9.92
2023-03-14T22:06:42.065Z,9.89
2023-03-14T22:09:10.293Z,9.90
2023-03-14T22:11:43.694Z,9.81
2023-03-14T22:14:11.426Z,9.72
2023-03-14T22:16:39.726Z,9.72
2023-03-14T22:19:13.884Z,9.69
2023-03-14T22:21:42.949Z,9.59
2023-03-14T22:24:12.386Z,9.60
2023-03-14T22:26:40.765Z,9.39
2023-03-14T22:29:08.795Z,9.52
2023-03-14T22:31:38.894Z,9.59
2023-03-14T22:34:07.331Z,9.52
2023-03-14T22:36:37.723Z,9.54
2023-03-14T22:39:07.372Z,9.56
2023-03-14T22:41:37.366Z,9.52
2023-03-14T22:44:09.310Z,9.42
2023-03-14T22:46:38.605Z,9.53
2023-03-14T22:49:08.279Z,9.49
2023-03-14T22:51:37.703Z,9.44
2023-03-14T22:54:05.624Z,9.37
2023-03-14T22:56:35.001Z,9.36
2023-03-14T22:59:03.548Z,9.44
2023-03-14T23:01:33.907Z,9.56
2023-03-14T23:04:02.631Z,9.55
2023-03-14T23:06:30.620Z,9.40
2023-03-14T23:09:02.324Z,9.44
2023-03-14T23:11:30.666Z,9.21
2023-03-14T23:14:00.629Z,9.19
2023-03-14T23:16:39.613Z,9.22
2023-03-14T23:19:11.030Z,9.20
2023-03-14T23:21:41.781Z,8.82
2023-03-14T23:24:10.526Z,8.74
2023-03-14T23:26:39.102Z,8.68
2023-03-14T23:29:08.452Z,8.65
2023-03-14T23:31:36.822Z,8.72
2023-03-14T23:34:05.106Z,8.86
2023-03-14T23:36:37.391Z,8.92
2023-03-14T23:39:06.109Z,8.92
2023-03-14T23:41:33.884Z,8.76
2023-03-14T23:44:02.675Z,8.72
2023-03-14T23:46:38.105Z,9.00
2023-03-14T23:49:05.948Z,8.84
2023-03-14T23:51:34.481Z,8.79
2023-03-14T23:54:02.245Z,9.08
2023-03-14T23:56:31.094Z,8.84
2023-03-14T23:58:59.826Z,8.86
